createdAt,value
2022-08-04T00:01:29.691Z,8.30
2022-08-04T00:04:27.467Z,8.73
2022-08-04T00:07:20.298Z,8.30
2022-08-04T00:10:29.974Z,7.63
2022-08-04T00:13:25.028Z,8.32
2022-08-04T00:16:15.512Z,8.30
2022-08-04T00:19:06.495Z,8.38
2022-08-04T00:22:01.042Z,7.80
2022-08-04T00:24:49.997Z,8.30
2022-08-04T00:27:39.561Z,7.80
2022-08-04T00:30:29.841Z,7.72
2022-08-04T00:33:21.313Z,8.13
2022-08-04T00:36:12.482Z,8.75
2022-08-04T00:39:01.664Z,8.05
2022-08-04T00:42:20.928Z,7.95
2022-08-04T00:45:35.733Z,7.95
2022-08-04T00:48:55.788Z,8.10
2022-08-04T00:52:31.349Z,7.97
2022-08-04T00:55:11.706Z,7.68
2022-08-04T00:58:29.172Z,8.10
2022-08-04T01:01:32.409Z,7.50
2022-08-04T01:04:37.478Z,7.70
2022-08-04T01:07:42.805Z,8.05
2022-08-04T01:10:42.417Z,7.55
2022-08-04T01:13:53.287Z,7.75
2022-08-04T01:16:51.801Z,8.27
2022-08-04T01:19:55.456Z,7.30
2022-08-04T01:23:18.233Z,8.18
2022-08-04T01:26:42.309Z,8.77
2022-08-04T01:29:50.331Z,7.70
2022-08-04T01:32:41.979Z,6.90
2022-08-04T01:35:46.982Z,8.07
2022-08-04T01:38:38.116Z,7.32
2022-08-04T01:41:32.918Z,7.53
2022-08-04T01:44:24.804Z,7.32
2022-08-04T01:47:18.145Z,7.85
2022-08-04T01:50:08.920Z,7.97
2022-08-04T01:52:57.656Z,7.32
2022-08-04T01:55:51.818Z,7.15
2022-08-04T01:58:43.258Z,7.07
2022-08-04T02:01:37.538Z,6.50
2022-08-04T02:04:27.435Z,7.97
2022-08-04T02:07:27.837Z,6.93
2022-08-04T02:10:28.994Z,6.40
2022-08-04T02:13:22.610Z,7.25
2022-08-04T02:16:29.501Z,6.95
2022-08-04T02:19:31.265Z,6.63
2022-08-04T02:22:24.039Z,7.53
2022-08-04T02:25:13.553Z,7.57
2022-08-04T02:28:13.817Z,7.40
2022-08-04T02:31:15.649Z,7.10
2022-08-04T02:34:09.682Z,7.50
2022-08-04T02:36:59.481Z,7.22
2022-08-04T02:39:54.034Z,7.32
2022-08-04T02:42:42.944Z,7.07
2022-08-04T02:45:37.080Z,7.53
2022-08-04T02:48:30.981Z,7.30
2022-08-04T02:51:24.334Z,7.50
2022-08-04T02:54:12.909Z,7.03
2022-08-04T02:57:04.470Z,6.75
2022-08-04T03:00:08.701Z,6.72
2022-08-04T03:03:07.555Z,6.80
2022-08-04T03:06:17.729Z,7.00
2022-08-04T03:09:35.674Z,6.50
2022-08-04T03:12:58.816Z,7.00
2022-08-04T03:16:01.302Z,7.15
2022-08-04T03:19:32.573Z,7.15
2022-08-04T03:23:13.026Z,7.22
2022-08-04T03:26:36.902Z,7.20
2022-08-04T03:30:04.898Z,7.32
2022-08-04T03:33:10.298Z,7.18
2022-08-04T03:36:33.745Z,7.30
2022-08-04T03:39:40.822Z,7.70
2022-08-04T03:42:50.414Z,7.00
2022-08-04T03:46:10.367Z,7.07
2022-08-04T03:49:46.738Z,7.45
2022-08-04T03:53:11.863Z,7.50
2022-08-04T03:56:35.113Z,7.35
2022-08-04T04:00:02.066Z,7.28
2022-08-04T04:03:39.967Z,7.07
2022-08-04T04:07:03.521Z,7.63
2022-08-04T04:10:26.845Z,7.53
2022-08-04T04:13:45.126Z,7.65
2022-08-04T04:16:46.146Z,7.85
2022-08-04T04:20:11.511Z,8.43
2022-08-04T04:23:13.719Z,8.55
2022-08-04T04:26:31.555Z,8.60
2022-08-04T04:29:49.779Z,8.57
2022-08-04T04:32:57.433Z,7.95
2022-08-04T04:36:00.937Z,8.90
2022-08-04T04:39:11.592Z,9.10
2022-08-04T04:42:17.370Z,8.77
2022-08-04T04:45:23.343Z,8.70
2022-08-04T04:48:31.674Z,8.55
2022-08-04T04:51:26.578Z,8.05
2022-08-04T04:54:25.977Z,9.02
2022-08-04T04:57:19.277Z,9.02
2022-08-04T05:00:11.063Z,7.43
2022-08-04T05:03:24.909Z,8.45
2022-08-04T05:06:27.739Z,8.45
2022-08-04T05:09:40.866Z,7.82
2022-08-04T05:14:37.036Z,8.02
2022-08-04T05:16:06.582Z,8.35
2022-08-04T05:19:04.800Z,7.88
2022-08-04T05:22:01.543Z,8.32
2022-08-04T05:24:53.546Z,8.02
2022-08-04T05:27:50.544Z,7.75
2022-08-04T05:30:48.425Z,7.63
2022-08-04T05:33:42.710Z,7.88
2022-08-04T05:36:41.410Z,7.03
2022-08-04T05:39:35.586Z,7.20
2022-08-04T05:42:24.481Z,7.07
2022-08-04T05:45:14.552Z,8.15
2022-08-04T05:48:03.959Z,8.07
2022-08-04T05:50:57.596Z,6.93
2022-08-04T05:53:49.306Z,7.20
2022-08-04T05:56:38.928Z,7.32
2022-08-04T05:59:28.763Z,7.53
2022-08-04T06:02:20.416Z,7.22
2022-08-04T06:05:14.835Z,6.47
2022-08-04T06:08:12.130Z,6.82
2022-08-04T06:11:06.700Z,6.80
2022-08-04T06:13:59.803Z,6.68
2022-08-04T06:16:51.675Z,7.90
2022-08-04T06:20:02.596Z,6.50
2022-08-04T06:22:58.244Z,6.70
2022-08-04T06:25:51.245Z,6.75
2022-08-04T06:28:42.775Z,6.78
2022-08-04T06:32:30.733Z,6.38
2022-08-04T06:34:57.197Z,7.05
2022-08-04T06:37:48.101Z,6.20
2022-08-04T06:40:37.692Z,6.13
2022-08-04T06:43:27.739Z,6.13
2022-08-04T06:46:18.539Z,6.28
2022-08-04T06:49:07.574Z,6.25
2022-08-04T06:51:59.207Z,5.93
2022-08-04T06:54:48.819Z,5.25
2022-08-04T06:57:38.792Z,5.55
2022-08-04T07:00:28.370Z,5.75
2022-08-04T07:03:19.219Z,5.63
2022-08-04T07:06:14.223Z,5.72
2022-08-04T07:09:05.037Z,5.75
2022-08-04T07:11:55.592Z,5.05
2022-08-04T07:14:44.777Z,4.70
2022-08-04T07:17:35.062Z,5.40
2022-08-04T07:20:30.440Z,4.45
2022-08-04T07:23:26.229Z,4.40
2022-08-04T07:26:17.343Z,4.45
2022-08-04T07:29:05.855Z,4.53
2022-08-04T07:31:55.597Z,4.03
2022-08-04T07:34:44.692Z,3.80
2022-08-04T07:37:40.062Z,3.47
2022-08-04T07:40:29.383Z,3.95
2022-08-04T07:43:19.323Z,3.60
2022-08-04T07:46:07.969Z,3.47
2022-08-04T07:48:56.572Z,3.72
2022-08-04T07:51:45.286Z,3.55
2022-08-04T07:54:34.790Z,3.65
2022-08-04T07:57:40.664Z,3.70
2022-08-04T08:00:32.046Z,3.97
2022-08-04T08:03:21.870Z,4.88
2022-08-04T08:06:30.938Z,3.90
2022-08-04T08:09:21.271Z,3.40
2022-08-04T08:12:37.905Z,3.70
2022-08-04T08:15:20.860Z,3.72
2022-08-04T08:18:10.688Z,3.25
2022-08-04T08:20:59.863Z,3.30
2022-08-04T08:23:49.463Z,3.58
2022-08-04T08:26:37.877Z,3.63
2022-08-04T08:29:27.751Z,3.40
2022-08-04T08:32:16.880Z,3.00
2022-08-04T08:35:07.998Z,3.97
2022-08-04T08:38:03.697Z,3.60
2022-08-04T08:40:57.465Z,3.53
2022-08-04T08:44:07.665Z,3.25
2022-08-04T08:47:07.569Z,3.20
2022-08-04T08:50:35.499Z,3.33
2022-08-04T08:53:49.046Z,3.25
2022-08-04T08:56:46.087Z,3.03
2022-08-04T08:59:48.228Z,3.30
2022-08-04T09:03:06.677Z,3.22
2022-08-04T09:06:37.670Z,3.03
2022-08-04T09:09:53.938Z,3.22
2022-08-04T09:12:51.612Z,2.80
2022-08-04T09:15:47.413Z,3.33
2022-08-04T09:18:48.398Z,3.13
2022-08-04T09:21:41.099Z,2.97
2022-08-04T09:24:45.121Z,3.40
2022-08-04T09:27:43.938Z,3.15
2022-08-04T09:30:40.162Z,2.70
2022-08-04T09:33:44.967Z,2.92
2022-08-04T09:36:40.528Z,2.70
2022-08-04T09:39:38.307Z,2.85
2022-08-04T09:42:42.608Z,2.63
2022-08-04T09:45:42.608Z,3.10
2022-08-04T09:48:41.141Z,3.10
2022-08-04T09:51:58.170Z,3.40
2022-08-04T09:54:58.481Z,3.03
2022-08-04T09:57:54.637Z,3.00
2022-08-04T10:00:50.828Z,2.97
2022-08-04T10:03:44.530Z,3.00
2022-08-04T10:07:09.692Z,3.33
2022-08-04T10:10:22.498Z,3.15
2022-08-04T10:13:30.426Z,2.92
2022-08-04T10:16:33.851Z,3.28
2022-08-04T10:19:27.470Z,2.90
2022-08-04T10:22:28.622Z,3.03
2022-08-04T10:26:03.199Z,3.30
2022-08-04T10:28:45.629Z,3.60
2022-08-04T10:31:36.953Z,3.28
2022-08-04T10:34:30.203Z,3.53
2022-08-04T10:37:56.514Z,3.33
2022-08-04T10:40:37.601Z,3.20
2022-08-04T10:43:39.988Z,3.13
2022-08-04T10:46:33.499Z,3.60
2022-08-04T10:49:25.173Z,3.40
2022-08-04T10:52:23.319Z,3.20
2022-08-04T10:55:18.555Z,3.33
2022-08-04T10:58:15.009Z,3.10
2022-08-04T11:01:12.564Z,2.97
2022-08-04T11:04:28.046Z,3.60
2022-08-04T11:07:17.926Z,3.20
2022-08-04T11:10:09.216Z,2.97
2022-08-04T11:13:03.341Z,2.65
2022-08-04T11:15:55.918Z,2.80
2022-08-04T11:18:50.984Z,3.22
2022-08-04T11:21:45.929Z,3.03
2022-08-04T11:24:42.003Z,2.80
2022-08-04T11:27:36.813Z,3.17
2022-08-04T11:30:29.517Z,2.65
2022-08-04T11:33:27.489Z,3.00
2022-08-04T11:36:23.546Z,3.10
2022-08-04T11:39:16.474Z,3.03
2022-08-04T11:42:14.342Z,2.60
2022-08-04T11:45:04.897Z,3.08
2022-08-04T11:48:00.674Z,2.70
2022-08-04T11:50:54.204Z,3.30
2022-08-04T11:53:45.940Z,17.40
2022-08-04T11:56:36.928Z,2.97
2022-08-04T11:59:28.468Z,2.90
2022-08-04T12:02:42.998Z,2.80
2022-08-04T12:05:35.660Z,2.70
2022-08-04T12:08:42.314Z,2.80
2022-08-04T12:11:43.894Z,2.70
2022-08-04T12:14:42.151Z,3.00
2022-08-04T12:17:52.188Z,2.90
2022-08-04T12:20:46.820Z,2.90
2022-08-04T12:23:41.773Z,2.67
2022-08-04T12:26:36.150Z,2.80
2022-08-04T12:29:26.924Z,2.67
2022-08-04T12:32:21.787Z,2.88
2022-08-04T12:35:20.464Z,2.75
2022-08-04T12:38:14.402Z,2.70
2022-08-04T12:41:04.515Z,3.25
2022-08-04T12:43:55.517Z,3.20
2022-08-04T12:46:48.217Z,2.97
2022-08-04T12:49:38.953Z,2.85
2022-08-04T12:52:45.114Z,3.00
2022-08-04T12:55:37.719Z,3.13
2022-08-04T12:58:42.292Z,3.40
2022-08-04T13:02:07.411Z,3.13
2022-08-04T13:04:51.561Z,3.35
2022-08-04T13:07:45.177Z,3.72
2022-08-04T13:10:40.628Z,3.00
2022-08-04T13:13:35.850Z,3.15
2022-08-04T13:16:32.114Z,3.38
2022-08-04T13:19:23.087Z,3.55
2022-08-04T13:22:12.101Z,3.33
2022-08-04T13:25:18.267Z,3.40
2022-08-04T13:28:15.611Z,3.67
2022-08-04T13:31:08.731Z,3.30
2022-08-04T13:34:07.736Z,3.55
2022-08-04T13:37:08.936Z,3.10
2022-08-04T13:40:00.398Z,3.58
2022-08-04T13:42:50.825Z,3.53
2022-08-04T13:45:42.090Z,3.33
2022-08-04T13:48:35.953Z,3.60
2022-08-04T13:51:57.632Z,3.35
2022-08-04T13:54:42.868Z,3.72
2022-08-04T13:57:34.045Z,3.13
2022-08-04T14:00:29.414Z,3.30
2022-08-04T14:03:26.456Z,3.33
2022-08-04T14:06:19.909Z,3.42
2022-08-04T14:09:14.960Z,3.50
2022-08-04T14:12:39.058Z,3.22
2022-08-04T14:16:01.306Z,3.58
2022-08-04T14:18:49.073Z,3.90
2022-08-04T14:21:38.943Z,3.58
2022-08-04T14:24:29.118Z,3.38
2022-08-04T14:27:17.699Z,3.50
2022-08-04T14:30:07.050Z,3.60
2022-08-04T14:32:57.689Z,5.10
2022-08-04T14:35:57.885Z,3.45
2022-08-04T14:38:51.523Z,3.25
2022-08-04T14:41:48.281Z,3.60
2022-08-04T14:44:55.635Z,3.30
2022-08-04T14:47:52.434Z,3.28
2022-08-04T14:50:43.679Z,3.35
2022-08-04T14:53:32.797Z,2.97
2022-08-04T14:56:45.039Z,3.28
2022-08-04T14:59:58.888Z,3.15
2022-08-04T15:02:49.216Z,3.20
2022-08-04T15:06:00.857Z,3.38
2022-08-04T15:08:49.049Z,3.28
2022-08-04T15:11:43.269Z,3.30
2022-08-04T15:14:37.028Z,3.33
2022-08-04T15:17:29.188Z,3.58
2022-08-04T15:20:19.514Z,3.20
2022-08-04T15:23:10.767Z,3.30
2022-08-04T15:26:04.421Z,3.28
2022-08-04T15:29:00.121Z,3.33
2022-08-04T15:32:06.130Z,3.33
2022-08-04T15:35:04.321Z,3.38
2022-08-04T15:38:02.087Z,3.47
2022-08-04T15:40:57.842Z,3.63
2022-08-04T15:43:55.785Z,3.50
2022-08-04T15:47:12.610Z,3.03
2022-08-04T15:50:06.915Z,3.20
2022-08-04T15:53:12.570Z,3.22
2022-08-04T15:56:01.929Z,3.00
2022-08-04T15:58:54.950Z,3.08
2022-08-04T16:01:44.074Z,3.53
2022-08-04T16:05:31.390Z,3.60
2022-08-04T16:08:20.030Z,2.95
2022-08-04T16:11:08.913Z,3.10
2022-08-04T16:14:09.934Z,3.05
2022-08-04T16:17:18.637Z,3.33
2022-08-04T16:20:15.526Z,3.45
2022-08-04T16:23:37.370Z,3.88
2022-08-04T16:26:54.626Z,3.47
2022-08-04T16:29:47.246Z,3.53
2022-08-04T16:32:45.941Z,4.22
2022-08-04T16:35:40.541Z,3.38
2022-08-04T16:38:30.764Z,3.35
2022-08-04T16:41:40.103Z,3.85
2022-08-04T16:44:52.143Z,4.60
2022-08-04T16:48:04.273Z,3.55
2022-08-04T16:51:05.231Z,3.35
2022-08-04T16:54:04.107Z,3.03
2022-08-04T16:56:54.509Z,3.42
2022-08-04T16:59:52.438Z,4.15
2022-08-04T17:02:41.355Z,3.53
2022-08-04T17:05:38.495Z,4.60
2022-08-04T17:08:32.146Z,3.50
2022-08-04T17:11:31.885Z,3.35
2022-08-04T17:14:23.484Z,3.45
2022-08-04T17:17:12.075Z,3.30
2022-08-04T17:20:00.980Z,3.13
2022-08-04T17:22:49.668Z,3.50
2022-08-04T17:25:52.888Z,4.82
2022-08-04T17:28:47.346Z,3.70
2022-08-04T17:31:40.515Z,5.78
2022-08-04T17:34:29.552Z,5.00
2022-08-04T17:37:39.671Z,4.20
2022-08-04T17:40:27.759Z,4.20
2022-08-04T17:44:03.149Z,4.30
2022-08-04T17:46:37.064Z,3.08
2022-08-04T17:49:28.775Z,3.08
2022-08-04T17:52:41.486Z,3.08
2022-08-04T17:55:39.900Z,3.20
2022-08-04T17:58:29.827Z,3.03
2022-08-04T18:01:25.983Z,3.30
2022-08-04T18:04:32.641Z,3.28
2022-08-04T18:10:55.737Z,3.60
2022-08-04T18:13:57.272Z,3.55
2022-08-04T18:16:46.650Z,4.00
2022-08-04T18:19:36.139Z,4.28
2022-08-04T18:22:36.966Z,4.10
2022-08-04T18:25:50.483Z,3.83
2022-08-04T18:28:36.318Z,3.72
2022-08-04T18:31:27.701Z,3.97
2022-08-04T18:34:20.436Z,3.80
2022-08-04T18:37:12.886Z,3.80
2022-08-04T18:40:26.486Z,4.10
2022-08-04T18:43:41.177Z,3.70
2022-08-04T18:46:30.117Z,4.40
2022-08-04T18:51:01.566Z,3.92
2022-08-04T18:52:27.526Z,4.13
2022-08-04T18:55:55.163Z,4.30
2022-08-04T18:58:27.749Z,3.90
2022-08-04T19:01:16.656Z,4.20
2022-08-04T19:04:32.432Z,3.97
2022-08-04T19:07:24.624Z,4.00
2022-08-04T19:10:24.104Z,4.00
2022-08-04T19:13:25.542Z,3.95
2022-08-04T19:16:16.693Z,4.68
2022-08-04T19:19:10.870Z,4.43
2022-08-04T19:22:02.469Z,4.60
2022-08-04T19:24:55.969Z,4.78
2022-08-04T19:27:44.534Z,4.40
2022-08-04T19:30:43.922Z,5.25
2022-08-04T19:33:59.383Z,4.90
2022-08-04T19:36:46.107Z,4.82
2022-08-04T19:39:36.073Z,5.30
2022-08-04T19:42:29.199Z,5.30
2022-08-04T19:45:17.920Z,5.30
2022-08-04T19:48:16.371Z,5.43
2022-08-04T19:51:08.426Z,5.30
2022-08-04T19:54:02.939Z,5.55
2022-08-04T19:56:56.558Z,5.57
2022-08-04T19:59:48.219Z,5.70
2022-08-04T20:02:37.087Z,6.20
2022-08-04T20:05:54.585Z,5.70
2022-08-04T20:08:36.555Z,5.57
2022-08-04T20:11:26.789Z,6.18
2022-08-04T20:14:15.893Z,5.85
2022-08-04T20:17:10.176Z,6.05
2022-08-04T20:19:59.532Z,5.88
2022-08-04T20:22:52.397Z,5.53
2022-08-04T20:25:41.911Z,5.50
2022-08-04T20:28:38.292Z,5.95
2022-08-04T20:31:31.524Z,5.43
2022-08-04T20:34:20.429Z,5.40
2022-08-04T20:37:10.706Z,5.32
2022-08-04T20:40:02.426Z,5.40
2022-08-04T20:42:53.855Z,5.57
2022-08-04T20:45:56.594Z,5.18
2022-08-04T20:48:47.977Z,6.00
2022-08-04T20:51:39.879Z,5.50
2022-08-04T20:54:28.934Z,5.78
2022-08-04T20:57:19.356Z,5.65
2022-08-04T21:00:30.170Z,10.30
2022-08-04T21:03:20.796Z,5.65
2022-08-04T21:06:27.676Z,6.05
2022-08-04T21:12:27.340Z,5.30
2022-08-04T21:15:24.759Z,6.22
2022-08-04T21:18:14.661Z,6.10
2022-08-04T21:21:06.949Z,5.95
2022-08-04T21:23:57.204Z,5.47
2022-08-04T21:26:55.797Z,6.15
2022-08-04T21:29:44.989Z,6.15
2022-08-04T21:32:34.690Z,5.82
2022-08-04T21:35:37.657Z,5.88
2022-08-04T21:38:29.245Z,6.13
2022-08-04T21:41:24.443Z,5.85
2022-08-04T21:44:14.393Z,6.15
2022-08-04T21:47:02.926Z,6.40
2022-08-04T21:49:56.506Z,5.30
2022-08-04T21:52:46.221Z,5.28
2022-08-04T21:56:06.909Z,5.45
2022-08-04T21:58:44.965Z,5.72
2022-08-04T22:01:52.470Z,5.82
2022-08-04T22:04:44.264Z,5.93
2022-08-04T22:07:50.405Z,5.78
2022-08-04T22:10:41.780Z,5.72
2022-08-04T22:13:52.786Z,6.00
2022-08-04T22:16:41.651Z,6.13
2022-08-04T22:19:50.120Z,6.05
2022-08-04T22:22:40.679Z,6.20
2022-08-04T22:25:31.372Z,6.47
2022-08-04T22:28:21.347Z,6.82
2022-08-04T22:31:23.339Z,6.63
2022-08-04T22:34:13.224Z,6.82
2022-08-04T22:37:02.789Z,6.47
2022-08-04T22:40:01.083Z,6.47
2022-08-04T22:42:50.303Z,6.60
2022-08-04T22:45:45.614Z,6.78
2022-08-04T22:48:35.647Z,7.07
2022-08-04T22:51:26.994Z,6.40
2022-08-04T22:54:16.119Z,6.43
2022-08-04T22:57:06.084Z,6.60
2022-08-04T22:59:56.804Z,6.85
2022-08-04T23:02:50.878Z,6.63
2022-08-04T23:05:39.453Z,6.10
2022-08-04T23:08:32.674Z,6.72
2022-08-04T23:11:33.371Z,6.43
2022-08-04T23:14:25.140Z,6.55
2022-08-04T23:17:14.188Z,6.72
2022-08-04T23:20:05.527Z,6.40
2022-08-04T23:23:14.994Z,6.45
2022-08-04T23:26:08.642Z,7.13
2022-08-04T23:29:03.575Z,6.93
2022-08-04T23:31:59.613Z,6.22
2022-08-04T23:34:49.251Z,6.25
2022-08-04T23:37:39.213Z,6.47
2022-08-04T23:40:50.237Z,6.25
2022-08-04T23:43:54.998Z,5.93
2022-08-04T23:46:44.402Z,6.68
2022-08-04T23:49:45.076Z,6.53
2022-08-04T23:52:33.977Z,5.85
2022-08-04T23:55:25.243Z,6.13
2022-08-04T23:58:25.450Z,6.32
